createdAt,value
2018-06-17T00:01:48.263Z,27.87
2018-06-17T00:03:52.514Z,26.80
2018-06-17T00:05:56.995Z,25.17
2018-06-17T00:08:01.446Z,25.17
2018-06-17T00:10:06.406Z,26.57
2018-06-17T00:12:10.417Z,25.67
2018-06-17T00:14:14.461Z,23.50
2018-06-17T00:16:18.736Z,26.90
2018-06-17T00:18:23.066Z,25.10
2018-06-17T00:20:27.501Z,26.00
2018-06-17T00:22:31.780Z,26.00
2018-06-17T00:24:36.034Z,25.10
2018-06-17T00:26:40.327Z,25.17
2018-06-17T00:28:44.789Z,26.17
2018-06-17T00:30:50.052Z,24.27
2018-06-17T00:32:54.162Z,22.30
2018-06-17T00:34:58.429Z,25.40
2018-06-17T00:37:03.466Z,22.00
2018-06-17T00:39:09.401Z,21.63
2018-06-17T00:41:13.715Z,20.10
2018-06-17T00:43:18.161Z,20.27
2018-06-17T00:45:22.437Z,21.80
2018-06-17T00:47:26.745Z,23.20
2018-06-17T00:49:31.173Z,20.53
2018-06-17T00:51:35.669Z,19.77
2018-06-17T00:53:40.082Z,21.60
2018-06-17T00:55:44.338Z,23.97
2018-06-17T00:57:50.584Z,21.10
2018-06-17T00:59:54.990Z,22.53
2018-06-17T01:01:59.217Z,23.90
2018-06-17T01:04:03.501Z,22.57
2018-06-17T01:06:07.837Z,23.63
2018-06-17T01:08:12.121Z,22.60
2018-06-17T01:10:16.375Z,23.03
2018-06-17T01:12:20.651Z,25.73
2018-06-17T01:14:24.932Z,24.57
2018-06-17T01:16:29.242Z,23.03
2018-06-17T01:18:33.385Z,23.00
2018-06-17T01:20:37.613Z,26.43
2018-06-17T01:22:42.243Z,28.03
2018-06-17T01:24:46.503Z,29.17
2018-06-17T01:26:50.758Z,28.07
2018-06-17T01:28:54.934Z,30.33
2018-06-17T01:30:59.504Z,26.93
2018-06-17T01:33:03.769Z,30.33
2018-06-17T01:35:08.532Z,29.57
2018-06-17T01:37:12.827Z,30.43
2018-06-17T01:39:17.178Z,28.20
2018-06-17T01:41:21.583Z,29.60
2018-06-17T01:43:25.811Z,29.10
2018-06-17T01:45:30.230Z,31.00
2018-06-17T01:47:34.657Z,29.40
2018-06-17T01:49:38.916Z,30.10
2018-06-17T01:51:43.280Z,28.90
2018-06-17T01:53:47.683Z,31.40
2018-06-17T01:55:51.985Z,31.00
2018-06-17T01:57:56.215Z,27.40
2018-06-17T02:00:00.827Z,31.83
2018-06-17T02:02:04.809Z,32.60
2018-06-17T02:04:14.671Z,31.00
2018-06-17T02:06:24.377Z,30.30
2018-06-17T02:08:34.198Z,28.87
2018-06-17T02:11:47.519Z,31.40
2018-06-17T02:13:51.786Z,33.80
2018-06-17T02:15:56.105Z,33.27
2018-06-17T02:18:00.757Z,34.53
2018-06-17T02:20:05.455Z,33.87
2018-06-17T02:22:09.690Z,33.43
2018-06-17T02:24:13.962Z,33.50
2018-06-17T02:26:18.221Z,30.33
2018-06-17T02:28:22.681Z,30.07
2018-06-17T02:30:26.717Z,28.13
2018-06-17T02:32:31.075Z,29.37
2018-06-17T02:34:35.245Z,27.00
2018-06-17T02:36:40.278Z,28.87
2018-06-17T02:38:44.498Z,29.83
2018-06-17T02:40:48.825Z,28.30
2018-06-17T02:42:53.401Z,28.40
2018-06-17T02:45:03.150Z,27.80
2018-06-17T02:47:12.963Z,27.80
2018-06-17T02:49:22.608Z,27.60
2018-06-17T02:51:32.565Z,29.73
2018-06-17T02:53:42.358Z,30.27
2018-06-17T02:55:46.727Z,27.90
2018-06-17T02:57:51.337Z,28.50
2018-06-17T02:59:55.598Z,30.60
2018-06-17T03:02:00.647Z,29.40
2018-06-17T03:04:04.916Z,31.70
2018-06-17T03:06:09.686Z,30.57
2018-06-17T03:08:13.691Z,29.17
2018-06-17T03:10:17.996Z,29.27
2018-06-17T03:12:22.269Z,28.37
2018-06-17T03:14:26.945Z,31.07
2018-06-17T03:16:31.418Z,36.27
2018-06-17T03:18:35.742Z,32.53
2018-06-17T03:20:40.026Z,34.70
2018-06-17T03:22:44.051Z,33.17
2018-06-17T03:24:53.686Z,31.17
2018-06-17T03:27:03.550Z,27.97
2018-06-17T03:30:11.942Z,28.27
2018-06-17T03:32:21.733Z,25.00
2018-06-17T03:34:25.992Z,28.23
2018-06-17T03:36:30.378Z,28.00
2018-06-17T03:38:34.630Z,27.80
2018-06-17T03:40:38.615Z,26.37
2018-06-17T03:42:43.065Z,23.87
2018-06-17T03:44:47.407Z,26.50
2018-06-17T03:46:51.678Z,27.13
2018-06-17T03:48:55.933Z,24.83
2018-06-17T03:51:00.238Z,26.60
2018-06-17T03:53:04.227Z,29.67
2018-06-17T03:55:08.802Z,24.70
2018-06-17T03:57:12.857Z,29.83
2018-06-17T03:59:17.170Z,29.53
2018-06-17T04:01:21.521Z,28.73
2018-06-17T04:03:25.810Z,24.93
2018-06-17T04:05:30.211Z,28.47
2018-06-17T04:07:34.537Z,26.77
2018-06-17T04:09:38.647Z,27.90
2018-06-17T04:11:42.994Z,23.63
2018-06-17T04:13:47.267Z,25.70
2018-06-17T04:15:51.841Z,24.40
2018-06-17T04:17:56.142Z,22.83
2018-06-17T04:20:00.457Z,23.23
2018-06-17T04:22:04.735Z,24.07
2018-06-17T04:24:09.189Z,26.10
2018-06-17T04:26:13.425Z,22.90
2018-06-17T04:28:17.775Z,23.40
2018-06-17T04:30:22.219Z,21.90
2018-06-17T04:32:26.477Z,22.83
2018-06-17T04:34:30.887Z,20.30
2018-06-17T04:36:35.099Z,22.10
2018-06-17T04:38:39.461Z,23.83
2018-06-17T04:40:43.746Z,17.63
2018-06-17T04:42:47.821Z,20.70
2018-06-17T04:44:52.181Z,20.00
2018-06-17T04:46:56.314Z,22.60
2018-06-17T04:49:00.763Z,26.27
2018-06-17T04:51:05.032Z,23.57
2018-06-17T04:53:09.342Z,24.13
2018-06-17T04:55:13.592Z,23.80
2018-06-17T04:57:18.380Z,21.57
2018-06-17T04:59:23.003Z,20.23
2018-06-17T05:01:27.282Z,21.30
2018-06-17T05:03:31.545Z,21.63
2018-06-17T05:05:35.932Z,23.27
2018-06-17T05:07:40.197Z,21.80
2018-06-17T05:09:44.488Z,20.83
2018-06-17T05:11:48.950Z,18.47
2018-06-17T05:13:53.295Z,19.00
2018-06-17T05:15:57.545Z,19.33
2018-06-17T05:18:01.836Z,20.10
2018-06-17T05:20:06.726Z,18.83
2018-06-17T05:22:11.005Z,19.53
2018-06-17T05:24:15.361Z,18.10
2018-06-17T05:26:19.695Z,20.70
2018-06-17T05:28:23.990Z,18.87
2018-06-17T05:30:28.602Z,16.57
2018-06-17T05:32:32.866Z,14.83
2018-06-17T05:34:37.693Z,11.33
2018-06-17T05:36:41.974Z,14.47
2018-06-17T05:38:46.337Z,16.50
2018-06-17T05:40:50.369Z,15.90
2018-06-17T05:42:54.520Z,15.70
2018-06-17T05:44:58.842Z,13.87
2018-06-17T05:47:03.133Z,10.93
2018-06-17T05:49:07.618Z,13.47
2018-06-17T05:51:11.882Z,11.70
2018-06-17T05:53:16.161Z,10.53
2018-06-17T05:55:20.506Z,11.13
2018-06-17T05:57:24.806Z,6.27
2018-06-17T05:59:29.241Z,9.23
2018-06-17T06:01:33.502Z,9.37
2018-06-17T06:03:37.850Z,9.90
2018-06-17T06:05:42.116Z,10.53
2018-06-17T06:07:46.363Z,9.17
2018-06-17T06:09:50.209Z,10.87
2018-06-17T06:11:54.614Z,6.00
2018-06-17T06:13:58.871Z,10.40
2018-06-17T06:16:03.114Z,9.50
2018-06-17T06:18:07.542Z,8.63
2018-06-17T06:20:11.798Z,9.67
2018-06-17T06:22:16.102Z,5.80
2018-06-17T06:24:20.366Z,7.30
2018-06-17T06:26:24.762Z,8.57
2018-06-17T06:28:29.018Z,5.50
2018-06-17T06:30:33.281Z,5.47
2018-06-17T06:32:37.565Z,7.03
2018-06-17T06:34:41.818Z,3.90
2018-06-17T06:36:46.099Z,5.70
2018-06-17T06:38:50.389Z,5.17
2018-06-17T06:40:54.685Z,3.57
2018-06-17T06:42:59.029Z,4.40
2018-06-17T06:45:03.582Z,5.33
2018-06-17T06:47:07.836Z,4.87
2018-06-17T06:49:12.122Z,5.30
2018-06-17T06:51:16.387Z,5.90
2018-06-17T06:53:20.659Z,6.27
2018-06-17T06:55:24.929Z,5.30
2018-06-17T06:57:29.248Z,5.50
2018-06-17T06:59:33.751Z,4.43
2018-06-17T07:01:49.514Z,5.20
2018-06-17T07:03:58.688Z,6.20
2018-06-17T07:06:14.060Z,5.77
2018-06-17T07:08:29.617Z,6.07
2018-06-17T07:10:33.581Z,3.70
2018-06-17T07:12:37.998Z,5.73
2018-06-17T07:14:42.294Z,6.17
2018-06-17T07:16:57.954Z,4.10
2018-06-17T07:19:01.966Z,4.17
2018-06-17T07:21:06.378Z,5.10
2018-06-17T07:23:10.491Z,5.30
2018-06-17T07:26:34.722Z,5.90
2018-06-17T07:28:58.910Z,4.90
2018-06-17T07:31:02.643Z,3.47
2018-06-17T07:33:06.708Z,3.23
2018-06-17T07:35:10.432Z,5.00
2018-06-17T07:37:14.685Z,3.73
2018-06-17T07:40:30.735Z,4.93
2018-06-17T07:42:34.529Z,2.97
2018-06-17T07:44:38.311Z,3.90
2018-06-17T07:46:42.107Z,2.90
2018-06-17T07:49:54.962Z,3.63
2018-06-17T07:52:11.536Z,4.40
2018-06-17T07:54:15.264Z,4.17
2018-06-17T07:56:18.999Z,3.77
2018-06-17T07:58:23.179Z,3.80
2018-06-17T08:00:26.918Z,4.07
2018-06-17T08:02:30.690Z,3.30
2018-06-17T08:04:34.524Z,3.90
2018-06-17T08:06:38.463Z,3.33
2018-06-17T08:08:42.258Z,3.80
2018-06-17T08:10:46.154Z,5.43
2018-06-17T08:12:50.356Z,5.10
2018-06-17T08:14:54.090Z,5.83
2018-06-17T08:16:58.373Z,4.40
2018-06-17T08:19:02.197Z,4.20
2018-06-17T08:21:05.938Z,5.70
2018-06-17T08:23:09.725Z,3.67
2018-06-17T08:25:13.479Z,4.03
2018-06-17T08:27:17.214Z,4.33
2018-06-17T08:29:20.984Z,5.03
2018-06-17T08:31:24.723Z,4.00
2018-06-17T08:33:28.701Z,3.07
2018-06-17T08:35:32.426Z,5.17
2018-06-17T08:37:36.222Z,6.30
2018-06-17T08:39:39.986Z,5.03
2018-06-17T08:41:44.173Z,4.10
2018-06-17T08:43:47.996Z,3.00
2018-06-17T08:45:51.824Z,3.47
2018-06-17T08:47:55.527Z,3.33
2018-06-17T08:49:59.335Z,4.33
2018-06-17T08:52:03.069Z,3.50
2018-06-17T08:54:06.601Z,3.13
2018-06-17T08:56:10.373Z,4.20
2018-06-17T08:58:13.869Z,3.50
2018-06-17T09:00:17.548Z,3.60
2018-06-17T09:02:21.456Z,3.20
2018-06-17T09:04:25.433Z,3.80
2018-06-17T09:06:29.589Z,3.30
2018-06-17T09:08:33.319Z,3.53
2018-06-17T09:10:37.139Z,4.50
2018-06-17T09:12:40.954Z,3.37
2018-06-17T09:14:45.026Z,4.23
2018-06-17T09:16:48.756Z,4.20
2018-06-17T09:18:52.718Z,4.10
2018-06-17T09:20:58.460Z,3.43
2018-06-17T09:23:02.810Z,3.60
2018-06-17T09:25:06.926Z,3.57
2018-06-17T09:27:10.626Z,4.67
2018-06-17T09:29:14.413Z,3.53
2018-06-17T09:31:18.156Z,3.90
2018-06-17T09:33:22.293Z,4.13
2018-06-17T09:35:26.430Z,3.90
2018-06-17T09:37:30.209Z,3.50
2018-06-17T09:39:34.289Z,3.40
2018-06-17T09:41:38.389Z,4.10
2018-06-17T09:43:42.138Z,3.03
2018-06-17T09:45:46.307Z,4.40
2018-06-17T09:47:50.012Z,4.17
2018-06-17T09:49:53.762Z,3.17
2018-06-17T09:51:57.401Z,3.57
2018-06-17T09:54:01.190Z,3.30
2018-06-17T09:56:05.022Z,4.10
2018-06-17T09:58:08.770Z,3.90
2018-06-17T10:00:17.203Z,3.57
2018-06-17T10:02:21.255Z,3.30
2018-06-17T10:04:25.105Z,2.80
2018-06-17T10:06:28.926Z,3.40
2018-06-17T10:08:32.714Z,3.77
2018-06-17T10:10:56.422Z,4.13
2018-06-17T10:13:00.686Z,3.73
2018-06-17T10:15:04.982Z,3.50
2018-06-17T10:17:09.317Z,3.73
2018-06-17T10:19:13.570Z,3.37
2018-06-17T10:21:17.845Z,4.07
2018-06-17T10:23:22.360Z,3.03
2018-06-17T10:25:26.594Z,4.30
2018-06-17T10:27:30.910Z,3.10
2018-06-17T10:29:35.434Z,4.10
2018-06-17T10:31:39.845Z,4.07
2018-06-17T10:33:44.135Z,3.80
2018-06-17T10:35:48.731Z,2.80
2018-06-17T10:37:53.307Z,3.30
2018-06-17T10:39:57.591Z,3.10
2018-06-17T10:42:01.901Z,3.07
2018-06-17T10:44:06.205Z,3.03
2018-06-17T10:46:10.461Z,3.90
2018-06-17T10:48:15.117Z,4.83
2018-06-17T10:50:19.962Z,3.90
2018-06-17T10:52:24.422Z,3.53
2018-06-17T10:54:28.710Z,3.33
2018-06-17T10:56:33.044Z,3.80
2018-06-17T10:58:37.531Z,4.90
2018-06-17T11:00:42.163Z,3.50
2018-06-17T11:02:46.426Z,3.27
2018-06-17T11:04:50.705Z,3.60
2018-06-17T11:06:54.970Z,3.30
2018-06-17T11:08:59.230Z,3.13
2018-06-17T11:11:03.667Z,2.87
2018-06-17T11:13:08.036Z,3.70
2018-06-17T11:15:12.298Z,2.87
2018-06-17T11:17:16.574Z,3.40
2018-06-17T11:19:20.890Z,3.93
2018-06-17T11:21:25.343Z,3.47
2018-06-17T11:23:29.610Z,3.87
2018-06-17T11:25:34.387Z,2.80
2018-06-17T11:27:39.015Z,3.53
2018-06-17T11:29:43.453Z,3.53
2018-06-17T11:31:47.706Z,2.20
2018-06-17T11:33:52.010Z,2.90
2018-06-17T11:35:56.282Z,1.60
2018-06-17T11:38:00.569Z,2.30
2018-06-17T11:40:05.090Z,1.80
2018-06-17T11:42:09.358Z,2.00
2018-06-17T11:44:13.636Z,2.30
2018-06-17T11:46:17.907Z,2.70
2018-06-17T11:48:22.056Z,2.70
2018-06-17T11:50:26.281Z,4.10
2018-06-17T11:52:30.405Z,2.70
2018-06-17T11:54:34.670Z,2.00
2018-06-17T11:56:38.998Z,3.03
2018-06-17T11:58:43.322Z,2.97
2018-06-17T12:00:48.592Z,2.80
2018-06-17T12:02:52.860Z,2.90
2018-06-17T12:04:57.131Z,2.90
2018-06-17T12:07:01.379Z,2.50
2018-06-17T12:09:07.535Z,3.87
2018-06-17T12:11:11.840Z,3.50
2018-06-17T12:13:16.119Z,3.70
2018-06-17T12:15:20.413Z,2.30
2018-06-17T12:17:24.566Z,3.70
2018-06-17T12:19:28.889Z,3.40
2018-06-17T12:21:33.129Z,3.00
2018-06-17T12:23:37.410Z,2.83
2018-06-17T12:25:41.654Z,3.20
2018-06-17T12:27:45.976Z,2.63
2018-06-17T12:29:49.993Z,2.97
2018-06-17T12:31:54.567Z,2.63
2018-06-17T12:33:59.194Z,2.80
2018-06-17T12:36:03.793Z,3.53
2018-06-17T12:38:07.761Z,2.80
2018-06-17T12:40:12.042Z,3.20
2018-06-17T12:42:16.319Z,2.80
2018-06-17T12:44:20.590Z,2.07
2018-06-17T12:46:24.659Z,2.47
2018-06-17T12:48:28.846Z,2.20
2018-06-17T12:50:33.137Z,2.60
2018-06-17T12:52:37.533Z,2.83
2018-06-17T12:54:42.041Z,2.97
2018-06-17T12:56:47.063Z,2.47
2018-06-17T12:58:51.365Z,3.40
2018-06-17T13:00:56.467Z,3.13
2018-06-17T13:03:00.931Z,4.00
2018-06-17T13:05:05.584Z,2.63
2018-06-17T13:07:09.861Z,3.93
2018-06-17T13:09:14.215Z,3.03
2018-06-17T13:11:18.544Z,3.60
2018-06-17T13:13:22.893Z,3.40
2018-06-17T13:15:27.218Z,3.80
2018-06-17T13:17:31.468Z,3.00
2018-06-17T13:19:36.065Z,2.97
2018-06-17T13:21:40.319Z,2.53
2018-06-17T13:23:44.638Z,2.50
2018-06-17T13:25:48.890Z,2.80
2018-06-17T13:27:53.175Z,3.13
2018-06-17T13:29:57.513Z,3.03
2018-06-17T13:32:01.742Z,2.77
2018-06-17T13:34:06.561Z,2.40
2018-06-17T13:36:11.142Z,2.60
2018-06-17T13:38:15.385Z,2.30
2018-06-17T13:40:19.691Z,3.07
2018-06-17T13:42:24.290Z,3.03
2018-06-17T13:44:28.600Z,3.10
2018-06-17T13:46:33.137Z,3.00
2018-06-17T13:48:37.410Z,2.57
2018-06-17T13:50:41.763Z,2.17
2018-06-17T13:52:46.046Z,3.40
2018-06-17T13:54:50.307Z,3.10
2018-06-17T13:56:54.561Z,2.30
2018-06-17T13:58:58.989Z,2.90
2018-06-17T14:01:03.262Z,2.87
2018-06-17T14:03:07.221Z,2.70
2018-06-17T14:05:11.474Z,2.90
2018-06-17T14:07:15.762Z,3.17
2018-06-17T14:09:20.008Z,3.40
2018-06-17T14:11:24.377Z,2.50
2018-06-17T14:13:29.119Z,3.40
2018-06-17T14:15:33.545Z,3.10
2018-06-17T14:17:37.802Z,3.00
2018-06-17T14:19:42.117Z,2.90
2018-06-17T14:21:46.362Z,3.50
2018-06-17T14:23:51.315Z,3.33
2018-06-17T14:25:55.582Z,3.57
2018-06-17T14:28:00.398Z,3.03
2018-06-17T14:30:05.822Z,4.37
2018-06-17T14:32:10.558Z,3.03
2018-06-17T14:34:14.818Z,4.93
2018-06-17T14:36:19.125Z,3.43
2018-06-17T14:38:23.402Z,3.30
2018-06-17T14:40:27.675Z,4.20
2018-06-17T14:42:37.521Z,3.60
2018-06-17T14:44:47.265Z,3.63
2018-06-17T14:46:56.837Z,3.00
2018-06-17T14:49:06.617Z,4.03
2018-06-17T14:51:16.372Z,3.20
2018-06-17T14:53:20.604Z,2.90
2018-06-17T14:55:24.838Z,2.73
2018-06-17T14:57:28.953Z,2.67
2018-06-17T14:59:33.442Z,2.93
2018-06-17T15:01:37.725Z,3.07
2018-06-17T15:03:42.042Z,2.97
2018-06-17T15:05:46.536Z,3.10
2018-06-17T15:07:51.159Z,3.60
2018-06-17T15:09:55.678Z,3.00
2018-06-17T15:11:59.914Z,2.50
2018-06-17T15:14:04.575Z,2.90
2018-06-17T15:16:09.112Z,2.70
2018-06-17T15:18:13.493Z,2.70
2018-06-17T15:20:17.923Z,3.23
2018-06-17T15:22:22.283Z,2.87
2018-06-17T15:24:26.725Z,2.30
2018-06-17T15:26:30.990Z,3.07
2018-06-17T15:28:35.250Z,3.10
2018-06-17T15:30:39.590Z,3.50
2018-06-17T15:32:49.403Z,4.30
2018-06-17T15:34:59.162Z,3.37
2018-06-17T15:37:08.686Z,3.90
2018-06-17T15:39:18.511Z,5.23
2018-06-17T15:41:28.823Z,3.80
2018-06-17T15:43:33.068Z,4.37
2018-06-17T15:45:37.377Z,3.40
2018-06-17T15:47:41.917Z,3.47
2018-06-17T15:49:46.206Z,3.20
2018-06-17T15:51:50.469Z,2.67
2018-06-17T15:53:54.541Z,2.77
2018-06-17T15:55:58.679Z,2.40
2018-06-17T15:58:03.061Z,2.70
2018-06-17T16:00:07.309Z,2.47
2018-06-17T16:02:11.565Z,3.23
2018-06-17T16:04:15.843Z,2.93
2018-06-17T16:06:20.114Z,2.40
2018-06-17T16:08:24.378Z,2.50
2018-06-17T16:10:28.589Z,2.60
2018-06-17T16:12:38.069Z,2.00
2018-06-17T16:14:47.874Z,1.57
2018-06-17T16:16:57.549Z,2.77
2018-06-17T16:19:07.310Z,1.90
2018-06-17T16:21:11.577Z,2.30
2018-06-17T16:23:15.828Z,2.00
2018-06-17T16:25:20.322Z,2.20
2018-06-17T16:27:24.600Z,2.10
2018-06-17T16:29:28.846Z,2.53
2018-06-17T16:31:33.309Z,1.97
2018-06-17T16:33:37.545Z,2.10
2018-06-17T16:35:41.849Z,1.70
2018-06-17T16:37:46.084Z,1.77
2018-06-17T16:39:50.330Z,1.50
2018-06-17T16:41:55.115Z,1.50
2018-06-17T16:43:59.381Z,2.50
2018-06-17T16:46:03.921Z,1.40
2018-06-17T16:48:08.150Z,1.97
2018-06-17T16:50:12.440Z,1.70
2018-06-17T16:52:22.058Z,1.97
2018-06-17T16:54:33.029Z,1.60
2018-06-17T16:56:42.722Z,2.60
2018-06-17T16:58:52.433Z,1.87
2018-06-17T17:00:56.966Z,1.60
2018-06-17T17:03:01.250Z,2.30
2018-06-17T17:05:05.635Z,1.83
2018-06-17T17:07:09.873Z,1.23
2018-06-17T17:09:14.192Z,1.80
2018-06-17T17:11:18.466Z,1.40
2018-06-17T17:13:22.709Z,1.50
2018-06-17T17:15:26.998Z,2.00
2018-06-17T17:17:32.562Z,2.03
2018-06-17T17:19:36.820Z,1.77
2018-06-17T17:21:41.190Z,1.70
2018-06-17T17:23:45.369Z,2.20
2018-06-17T17:25:49.630Z,1.80
2018-06-17T17:27:53.873Z,1.83
2018-06-17T17:29:58.166Z,1.70
2018-06-17T17:32:07.824Z,1.93
2018-06-17T17:34:17.642Z,2.20
2018-06-17T17:36:27.282Z,2.17
2018-06-17T17:38:36.452Z,1.60
2018-06-17T17:40:44.576Z,1.67
2018-06-17T17:42:49.108Z,1.90
2018-06-17T17:44:58.810Z,1.77
2018-06-17T17:47:24.301Z,1.97
2018-06-17T17:49:28.552Z,2.00
2018-06-17T17:51:32.846Z,2.00
2018-06-17T17:53:37.133Z,2.50
2018-06-17T17:55:41.414Z,1.50
2018-06-17T17:57:45.681Z,1.87
2018-06-17T17:59:49.918Z,2.00
2018-06-17T18:01:54.165Z,1.80
2018-06-17T18:04:00.230Z,1.87
2018-06-17T18:06:04.822Z,2.00
2018-06-17T18:08:09.314Z,1.80
2018-06-17T18:10:13.566Z,1.90
2018-06-17T18:12:17.843Z,2.10
2018-06-17T18:14:22.086Z,1.63
2018-06-17T18:16:26.338Z,1.83
2018-06-17T18:18:30.714Z,2.30
2018-06-17T18:20:35.040Z,2.00
2018-06-17T18:22:39.446Z,2.00
2018-06-17T18:24:48.018Z,2.80
2018-06-17T18:26:58.130Z,1.83
2018-06-17T18:29:08.170Z,1.87
2018-06-17T18:31:12.480Z,2.50
2018-06-17T18:33:22.141Z,1.80
2018-06-17T18:35:31.970Z,1.87
2018-06-17T18:37:36.572Z,1.80
2018-06-17T18:39:40.814Z,1.90
2018-06-17T18:41:45.098Z,1.73
2018-06-17T18:43:49.350Z,2.00
2018-06-17T18:45:53.635Z,2.20
2018-06-17T18:47:57.889Z,2.03
2018-06-17T18:50:02.138Z,2.17
2018-06-17T18:52:06.429Z,2.60
2018-06-17T18:54:11.011Z,1.87
2018-06-17T18:56:16.009Z,2.40
2018-06-17T18:58:20.805Z,2.00
2018-06-17T19:00:25.456Z,2.07
2018-06-17T19:02:29.914Z,2.10
2018-06-17T19:04:34.240Z,2.47
2018-06-17T19:06:38.507Z,1.93
2018-06-17T19:08:48.202Z,2.03
2018-06-17T19:10:57.774Z,2.20
2018-06-17T19:13:07.653Z,2.43
2018-06-17T19:15:17.186Z,2.20
2018-06-17T19:17:27.082Z,1.67
2018-06-17T19:19:31.326Z,2.33
2018-06-17T19:21:35.945Z,1.57
2018-06-17T19:23:40.527Z,2.90
2018-06-17T19:25:45.050Z,1.87
2018-06-17T19:27:49.309Z,1.90
2018-06-17T19:29:53.704Z,2.30
2018-06-17T19:31:58.014Z,2.03
2018-06-17T19:34:02.262Z,1.63
2018-06-17T19:36:06.533Z,2.07
2018-06-17T19:38:10.971Z,1.60
2018-06-17T19:40:15.239Z,2.10
2018-06-17T19:42:19.506Z,1.93
2018-06-17T19:44:23.919Z,2.00
2018-06-17T19:46:28.209Z,1.57
2018-06-17T19:48:32.462Z,1.97
2018-06-17T19:50:41.898Z,1.80
2018-06-17T19:52:51.452Z,2.17
2018-06-17T19:55:01.241Z,1.80
2018-06-17T19:57:11.202Z,2.07
2018-06-17T19:59:20.782Z,1.70
2018-06-17T20:01:25.077Z,2.27
2018-06-17T20:03:29.381Z,2.00
2018-06-17T20:05:34.250Z,1.90
2018-06-17T20:07:38.518Z,1.90
2018-06-17T20:09:42.740Z,2.10
2018-06-17T20:11:47.147Z,2.20
2018-06-17T20:13:51.409Z,1.77
2018-06-17T20:15:55.692Z,1.93
2018-06-17T20:18:00.016Z,2.43
2018-06-17T20:20:04.462Z,2.30
2018-06-17T20:22:08.779Z,2.07
2018-06-17T20:24:13.042Z,1.90
2018-06-17T20:26:17.078Z,2.03
2018-06-17T20:28:21.424Z,2.30
2018-06-17T20:30:25.876Z,1.70
2018-06-17T20:32:35.510Z,10.90
2018-06-17T20:34:45.043Z,3.10
2018-06-17T20:36:54.922Z,2.43
2018-06-17T20:39:04.721Z,5.60
2018-06-17T20:41:16.581Z,1.93
2018-06-17T20:43:26.432Z,2.40
2018-06-17T20:45:30.692Z,3.17
2018-06-17T20:47:34.987Z,2.90
2018-06-17T20:49:39.291Z,2.03
2018-06-17T20:51:43.589Z,2.23
2018-06-17T20:53:48.819Z,2.30
2018-06-17T20:55:53.407Z,2.03
2018-06-17T20:57:57.660Z,3.13
2018-06-17T21:00:01.906Z,3.03
2018-06-17T21:02:06.530Z,2.50
2018-06-17T21:04:10.814Z,2.20
2018-06-17T21:06:15.069Z,2.73
2018-06-17T21:08:19.336Z,2.20
2018-06-17T21:10:23.582Z,2.33
2018-06-17T21:12:27.813Z,2.07
2018-06-17T21:14:32.169Z,2.47
2018-06-17T21:16:36.756Z,2.70
2018-06-17T21:18:46.618Z,8.10
2018-06-17T21:20:56.297Z,5.67
2018-06-17T21:23:05.973Z,2.20
2018-06-17T21:26:19.262Z,5.50
2018-06-17T21:28:23.665Z,3.40
2018-06-17T21:30:28.342Z,3.10
2018-06-17T21:32:32.617Z,2.80
2018-06-17T21:34:36.917Z,2.13
2018-06-17T21:36:41.227Z,3.87
2018-06-17T21:38:45.766Z,4.00
2018-06-17T21:40:50.030Z,3.43
2018-06-17T21:42:54.460Z,3.10
2018-06-17T21:44:58.784Z,3.00
2018-06-17T21:47:03.202Z,3.97
2018-06-17T21:49:07.436Z,4.17
2018-06-17T21:51:11.698Z,5.00
2018-06-17T21:53:16.111Z,3.73
2018-06-17T21:55:20.461Z,4.23
2018-06-17T21:57:24.982Z,4.10
2018-06-17T21:59:28.954Z,2.90
2018-06-17T22:01:33.513Z,3.87
2018-06-17T22:03:37.546Z,3.37
2018-06-17T22:05:42.135Z,3.73
2018-06-17T22:07:51.980Z,3.83
2018-06-17T22:10:01.822Z,3.50
2018-06-17T22:12:11.661Z,4.10
2018-06-17T22:14:21.409Z,3.20
2018-06-17T22:16:30.971Z,3.60
2018-06-17T22:18:35.226Z,2.87
2018-06-17T22:20:39.825Z,4.70
2018-06-17T22:22:44.195Z,4.30
2018-06-17T22:24:48.837Z,3.20
2018-06-17T22:26:53.123Z,3.17
2018-06-17T22:28:57.722Z,2.93
2018-06-17T22:31:02.011Z,2.60
2018-06-17T22:33:06.271Z,3.73
2018-06-17T22:35:10.583Z,2.93
2018-06-17T22:37:14.834Z,2.90
2018-06-17T22:39:19.111Z,2.50
2018-06-17T22:41:23.731Z,2.40
2018-06-17T22:43:27.941Z,3.13
2018-06-17T22:45:32.230Z,2.67
2018-06-17T22:47:41.910Z,2.57
2018-06-17T22:49:46.919Z,2.87
2018-06-17T22:51:51.249Z,3.27
2018-06-17T22:54:07.265Z,3.30
2018-06-17T22:56:16.612Z,3.17
2018-06-17T22:58:26.317Z,3.30
2018-06-17T23:00:35.901Z,2.90
2018-06-17T23:02:45.682Z,3.17
2018-06-17T23:04:55.074Z,3.67
2018-06-17T23:07:04.712Z,3.03
2018-06-17T23:09:14.494Z,2.43
2018-06-17T23:11:18.807Z,3.00
2018-06-17T23:13:23.089Z,2.60
2018-06-17T23:15:27.434Z,2.70
2018-06-17T23:17:31.716Z,2.83
2018-06-17T23:19:36.271Z,2.80
2018-06-17T23:21:40.506Z,1.70
2018-06-17T23:23:44.749Z,3.30
2018-06-17T23:25:49.112Z,3.70
2018-06-17T23:27:53.098Z,3.03
2018-06-17T23:29:57.035Z,2.27
2018-06-17T23:32:01.186Z,2.90
2018-06-17T23:34:06.064Z,3.10
2018-06-17T23:36:10.317Z,3.80
2018-06-17T23:38:14.685Z,3.37
2018-06-17T23:40:18.951Z,3.03
2018-06-17T23:42:23.313Z,3.30
2018-06-17T23:44:27.542Z,3.00
2018-06-17T23:46:37.179Z,3.27
2018-06-17T23:48:47.006Z,3.40
2018-06-17T23:50:56.532Z,2.90
2018-06-17T23:53:06.230Z,2.87
2018-06-17T23:55:15.863Z,3.30
2018-06-17T23:57:20.470Z,4.40
2018-06-17T23:59:24.728Z,3.30
